Time;durP1;ratioP1;P1;durP2;ratioP2;P2;SDS_P1;SDS_P2;PMS_P1;PMS_P2;Temp;Humidity;BMP_temperature;BMP_pressure;BME280_temperature;BME280_humidity;BME280_pressure;Samples;Min_cycle;Max_cycle;Signal;HPM_P1;HPM_P2
2023/06/28 00:06:21;;;;;;;1999.90;999.90;;;16.80;99.90;;;;;;6743926;88;20201;-77
2023/06/28 00:16:21;;;;;;;1999.90;999.90;;;16.90;99.90;;;;;;6740471;88;20243;-78
2023/06/28 00:26:22;;;;;;;1999.90;999.90;;;16.90;99.90;;;;;;6737154;88;20288;-78
2023/06/28 00:36:23;;;;;;;1999.90;999.90;;;16.90;99.90;;;;;;6743812;88;20194;-78
2023/06/28 00:46:23;;;;;;;1999.90;999.90;;;16.90;99.90;;;;;;6743845;88;20607;-77
2023/06/28 00:56:25;;;;;;;1999.90;999.90;;;17.00;99.90;;;;;;6741502;88;20212;-78
2023/06/28 01:06:35;;;;;;;1999.90;999.90;;;16.90;99.90;;;;;;6736440;88;20289;-78
2023/06/28 01:16:35;;;;;;;1999.90;999.90;;;16.90;99.90;;;;;;6734801;88;20211;-78
2023/06/28 01:26:36;;;;;;;1999.90;999.90;;;17.00;99.90;;;;;;6730674;88;20205;-79
2023/06/28 01:36:37;;;;;;;1999.90;999.90;;;17.00;99.90;;;;;;6739249;88;20628;-79
2023/06/28 01:46:38;;;;;;;1999.90;999.90;;;17.00;99.90;;;;;;6738272;88;20198;-79
2023/06/28 01:56:38;;;;;;;1999.90;999.90;;;17.00;99.90;;;;;;6739270;88;20198;-78
2023/06/28 02:06:40;;;;;;;1999.90;999.90;;;17.00;99.90;;;;;;6738219;88;20324;-78
2023/06/28 02:16:41;;;;;;;1999.90;999.90;;;17.00;99.90;;;;;;6737778;88;20190;-80
2023/06/28 02:26:41;;;;;;;1999.90;999.90;;;16.90;99.90;;;;;;6736518;88;20192;-79
2023/06/28 02:36:42;;;;;;;1999.90;999.90;;;17.00;99.90;;;;;;6740161;88;20215;-78
2023/06/28 02:46:42;;;;;;;1999.90;999.90;;;17.00;99.90;;;;;;6744805;88;20211;-79
2023/06/28 02:56:43;;;;;;;1999.90;999.90;;;17.00;99.90;;;;;;6746220;88;20325;-80
2023/06/28 03:06:48;;;;;;;1999.90;999.90;;;17.00;99.90;;;;;;6742432;88;20194;-79
2023/06/28 03:16:48;;;;;;;;;;;16.90;99.90;;;;;;6746630;88;20728;-79
2023/06/28 03:26:49;;;;;;;1999.90;999.90;;;16.80;99.90;;;;;;6754060;88;20169;-79
2023/06/28 03:36:50;;;;;;;1999.90;999.90;;;16.70;99.90;;;;;;6750430;88;20199;-79
2023/06/28 03:46:50;;;;;;;1999.90;999.90;;;16.50;99.90;;;;;;6748849;88;20201;-79
2023/06/28 03:56:51;;;;;;;1999.90;999.90;;;16.50;99.90;;;;;;6750609;88;20180;-79
2023/06/28 04:06:51;;;;;;;1999.90;999.90;;;16.50;99.90;;;;;;6749840;88;20299;-80
2023/06/28 04:16:52;;;;;;;1999.90;999.90;;;16.60;99.90;;;;;;6751804;88;20941;-79
2023/06/28 04:26:53;;;;;;;1999.90;999.90;;;16.70;99.90;;;;;;6761180;88;20183;-78
2023/06/28 04:36:55;;;;;;;1999.90;999.90;;;16.80;99.90;;;;;;6761945;88;20405;-78
2023/06/28 04:46:56;;;;;;;1999.90;999.90;;;16.90;99.90;;;;;;6762564;88;20204;-79
2023/06/28 05:07:59;;;;;;;1999.90;999.90;;;17.00;99.90;;;;;;6736253;88;20194;-81
2023/06/28 05:17:59;;;;;;;1999.90;999.90;;;17.20;99.90;;;;;;6735936;88;21044;-81
2023/06/28 05:28:00;;;;;;;1999.90;999.90;;;17.30;99.90;;;;;;6728161;88;20200;-80
2023/06/28 05:38:01;;;;;;;1999.90;999.90;;;17.50;99.90;;;;;;6730596;88;20205;-80
2023/06/28 05:48:01;;;;;;;1999.90;999.90;;;17.70;99.90;;;;;;6732194;88;20208;-79
2023/06/28 05:58:02;;;;;;;1999.90;999.90;;;18.00;99.90;;;;;;6730993;88;20388;-81
2023/06/28 06:08:03;;;;;;;1999.90;999.90;;;18.30;99.90;;;;;;6729430;88;20223;-79
2023/06/28 06:18:03;;;;;;;1999.90;999.90;;;18.70;99.90;;;;;;6731246;88;20218;-80
2023/06/28 06:28:04;;;;;;;1999.90;999.90;;;19.00;99.90;;;;;;6724023;88;20505;-80
2023/06/28 06:38:04;;;;;;;1999.90;999.90;;;18.80;99.90;;;;;;6727069;88;20555;-81
2023/06/28 06:48:05;;;;;;;1999.90;999.90;;;18.90;99.90;;;;;;6727496;88;20490;-80
2023/06/28 06:58:05;;;;;;;1999.90;999.90;;;19.10;99.90;;;;;;6731175;88;20211;-80
2023/06/28 07:08:06;;;;;;;1999.90;999.90;;;19.10;99.90;;;;;;6743596;88;20270;-81
2023/06/28 07:18:06;;;;;;;1999.90;999.90;;;19.20;99.90;;;;;;6748365;88;20189;-81
2023/06/28 07:28:07;;;;;;;1999.90;999.90;;;19.70;99.90;;;;;;6745802;88;20218;-82
2023/06/28 07:38:07;;;;;;;1999.90;999.90;;;19.70;99.90;;;;;;6749681;88;20205;-81
2023/06/28 07:48:09;;;;;;;1999.90;999.90;;;19.80;99.90;;;;;;6745381;88;20192;-82
2023/06/28 07:58:09;;;;;;;1999.90;999.90;;;19.80;99.90;;;;;;6748552;88;20201;-81
2023/06/28 08:08:10;;;;;;;1999.90;999.90;;;20.00;99.90;;;;;;6748894;88;20575;-81
2023/06/28 08:18:11;;;;;;;1999.90;999.90;;;19.90;99.90;;;;;;6748196;88;20208;-82
2023/06/28 08:28:11;;;;;;;1999.90;999.90;;;19.70;99.90;;;;;;6749601;88;20185;-82
2023/06/28 08:38:11;;;;;;;1999.90;999.90;;;19.60;99.90;;;;;;6744006;88;20198;-82
2023/06/28 08:48:13;;;;;;;1999.90;999.90;;;19.50;99.90;;;;;;6749952;88;20239;-81
2023/06/28 08:58:15;;;;;;;1999.90;999.90;;;19.70;99.90;;;;;;6748107;88;20185;-80
2023/06/28 09:08:18;;;;;;;1999.90;999.90;;;20.20;99.90;;;;;;6744924;88;20382;-80
2023/06/28 09:18:19;;;;;;;1999.90;999.90;;;21.20;99.90;;;;;;6748900;88;20204;-83
2023/06/28 09:28:35;;;;;;;1999.90;999.90;;;21.50;99.90;;;;;;6749616;88;20188;-81
2023/06/28 09:38:43;;;;;;;1999.90;999.90;;;21.40;99.90;;;;;;6710157;88;20193;-80
2023/06/28 09:48:47;;;;;;;1999.90;999.90;;;21.20;99.90;;;;;;6712256;88;20219;-80
2023/06/28 09:58:48;;;;;;;1999.90;999.90;;;21.40;99.90;;;;;;6715164;88;20340;-80
2023/06/28 10:08:49;;;;;;;1999.90;999.90;;;21.80;99.90;;;;;;6719159;88;20280;-80
2023/06/28 10:18:51;;;;;;;1999.90;999.90;;;22.40;99.90;;;;;;6734335;88;20314;-80
2023/06/28 10:28:54;;;;;;;1999.90;999.90;;;22.80;99.90;;;;;;6727319;88;20202;-80
2023/06/28 10:38:54;;;;;;;1999.90;999.90;;;22.30;98.20;;;;;;6730776;88;20212;-81
2023/06/28 10:48:59;;;;;;;1999.90;999.90;;;22.20;99.60;;;;;;6738111;88;20273;-82
2023/06/28 10:59:41;;;;;;;1999.90;999.90;;;22.10;99.90;;;;;;6711267;77;20351;-79
2023/06/28 11:10:16;;;;;;;1999.90;999.90;;;22.50;99.90;;;;;;6706771;88;20166;-78
2023/06/28 11:20:16;;;;;;;1999.90;999.90;;;23.50;97.90;;;;;;6701691;88;20187;-82
2023/06/28 11:30:17;;;;;;;1999.90;999.90;;;23.00;98.60;;;;;;6713520;88;20258;-81
2023/06/28 11:40:20;;;;;;;1999.90;999.90;;;22.80;99.00;;;;;;6715216;88;20334;-80
2023/06/28 11:50:25;;;;;;;1999.90;999.90;;;23.00;98.70;;;;;;6707077;88;20226;-80
2023/06/28 12:00:37;;;;;;;1999.90;999.90;;;23.30;98.20;;;;;;6710857;88;20632;-80
2023/06/28 12:10:38;;;;;;;1999.90;999.90;;;23.10;98.40;;;;;;6713387;88;20209;-80
2023/06/28 12:20:40;;;;;;;1999.90;999.90;;;23.30;99.50;;;;;;6718536;88;20178;-80
2023/06/28 12:30:43;;;;;;;1999.90;999.90;;;23.70;98.40;;;;;;6710946;88;20650;-82
2023/06/28 12:40:45;;;;;;;1999.90;999.90;;;23.50;98.30;;;;;;6712323;88;20286;-80
2023/06/28 12:50:51;;;;;;;1999.90;999.90;;;23.60;98.90;;;;;;6723355;88;20209;-80
2023/06/28 13:00:54;;;;;;;1999.90;999.90;;;24.00;98.80;;;;;;6736330;88;21146;-80
2023/06/28 13:10:55;;;;;;;;;;;24.70;98.20;;;;;;6725495;88;20177;-81
2023/06/28 13:21:00;;;;;;;1999.90;999.90;;;24.90;97.90;;;;;;6703197;88;20175;-80
2023/06/28 13:31:01;;;;;;;1999.90;999.90;;;25.30;97.90;;;;;;6714090;88;20214;-82
2023/06/28 13:41:06;;;;;;;1999.90;999.90;;;26.10;96.50;;;;;;6737187;88;20831;-80
2023/06/28 13:51:09;;;;;;;1999.90;999.90;;;26.30;96.70;;;;;;6742610;88;20159;-80
2023/06/28 14:01:10;;;;;;;1999.90;999.90;;;27.00;95.70;;;;;;6729373;88;20158;-81
2023/06/28 14:11:10;;;;;;;1999.90;999.90;;;28.10;95.00;;;;;;6733520;88;20781;-81
2023/06/28 14:21:11;;;;;;;1999.90;999.90;;;28.20;94.20;;;;;;6729830;88;20187;-80
2023/06/28 14:31:14;;;;;;;1999.90;999.90;;;27.90;94.30;;;;;;6733177;88;20168;-83
2023/06/28 14:41:15;;;;;;;1999.90;999.90;;;27.10;94.60;;;;;;6729194;88;20155;-80
2023/06/28 14:51:16;;;;;;;1999.90;999.90;;;27.00;94.80;;;;;;6740006;88;20183;-81
2023/06/28 15:01:16;;;;;;;1999.90;999.90;;;27.50;94.90;;;;;;6737026;88;20212;-80
2023/06/28 15:11:17;;;;;;;1999.90;999.90;;;27.30;94.00;;;;;;6733348;88;21019;-81
2023/06/28 15:21:17;;;;;;;1999.90;999.90;;;27.30;94.60;;;;;;6734358;88;20226;-80
2023/06/28 15:31:18;;;;;;;1999.90;999.90;;;27.50;93.90;;;;;;6733386;88;20218;-83
2023/06/28 15:41:18;;;;;;;1999.90;999.90;;;27.40;94.50;;;;;;6731080;88;20199;-79
2023/06/28 15:51:19;;;;;;;1999.90;999.90;;;27.70;93.90;;;;;;6717704;88;20353;-83
2023/06/28 16:01:20;;;;;;;1999.90;999.90;;;27.20;94.70;;;;;;6711143;88;20358;-80
2023/06/28 16:11:20;;;;;;;1999.90;999.90;;;26.70;95.20;;;;;;6709972;88;20268;-81
2023/06/28 16:21:22;;;;;;;1999.90;999.90;;;26.70;94.80;;;;;;6710795;88;20178;-81
2023/06/28 16:31:23;;;;;;;1999.90;999.90;;;26.70;95.00;;;;;;6711072;88;20203;-80
2023/06/28 16:41:23;;;;;;;1999.90;999.90;;;26.70;95.00;;;;;;6720748;88;20166;-83
2023/06/28 16:51:24;;;;;;;1999.90;999.90;;;26.70;95.30;;;;;;6694038;88;20199;-79
2023/06/28 17:01:24;;;;;;;1999.90;999.90;;;26.40;95.20;;;;;;6723078;88;20248;-79
2023/06/28 17:11:26;;;;;;;1999.90;999.90;;;26.80;95.70;;;;;;6706266;88;20216;-78
2023/06/28 17:21:26;;;;;;;1999.90;999.90;;;26.40;95.20;;;;;;6697035;88;20219;-77
2023/06/28 17:31:27;;;;;;;1999.90;999.90;;;25.70;96.70;;;;;;6702816;88;20687;-79
2023/06/28 17:41:27;;;;;;;1999.90;999.90;;;26.10;96.20;;;;;;6699150;88;20222;-78
2023/06/28 17:51:28;;;;;;;1999.90;999.90;;;25.60;96.30;;;;;;6708905;88;20224;-77
2023/06/28 18:01:28;;;;;;;1999.90;999.90;;;25.30;97.30;;;;;;6716512;88;20259;-77
2023/06/28 18:11:29;;;;;;;1999.90;999.90;;;25.20;97.40;;;;;;6716705;88;20186;-77
2023/06/28 18:21:29;;;;;;;1999.90;999.90;;;25.10;97.50;;;;;;6678798;89;20203;-77
2023/06/28 18:31:30;;;;;;;1999.90;999.90;;;24.90;97.60;;;;;;6682256;89;21043;-77
2023/06/28 18:41:30;;;;;;;1999.90;999.90;;;24.60;98.70;;;;;;6680825;89;21077;-77
2023/06/28 18:51:35;;;;;;;1999.90;999.90;;;24.30;99.30;;;;;;6683950;88;20215;-78
2023/06/28 19:01:37;;;;;;;1999.90;999.90;;;23.90;99.90;;;;;;6688575;88;20259;-79
2023/06/28 19:11:38;;;;;;;1999.90;999.90;;;23.50;99.90;;;;;;6710105;88;20195;-82
2023/06/28 19:21:38;;;;;;;1999.90;999.90;;;23.20;99.90;;;;;;6728110;88;20197;-81
2023/06/28 19:31:39;;;;;;;1999.90;999.90;;;22.90;99.90;;;;;;6728999;88;20216;-81
2023/06/28 19:41:40;;;;;;;1999.90;999.90;;;22.70;99.90;;;;;;6722528;88;20186;-81
2023/06/28 19:51:41;;;;;;;1999.90;999.90;;;22.50;99.90;;;;;;6722230;88;20198;-82
2023/06/28 20:01:41;;;;;;;1999.90;999.90;;;22.50;99.90;;;;;;6724988;88;20210;-80
2023/06/28 20:11:42;;;;;;;1999.90;999.90;;;22.20;99.90;;;;;;6720709;88;20252;-80
2023/06/28 20:21:42;;;;;;;1999.90;999.90;;;22.10;99.90;;;;;;6695205;88;20859;-77
2023/06/28 20:31:43;;;;;;;1999.90;999.90;;;22.00;99.90;;;;;;6690676;88;20259;-77
2023/06/28 20:41:45;;;;;;;1999.90;999.90;;;22.00;99.90;;;;;;6719719;88;20531;-78
2023/06/28 20:51:45;;;;;;;1999.90;999.90;;;21.90;99.90;;;;;;6707384;88;20175;-78
2023/06/28 21:01:46;;;;;;;1999.90;999.90;;;21.70;99.90;;;;;;6707574;88;20208;-79
2023/06/28 21:11:47;;;;;;;1999.90;999.90;;;21.40;99.90;;;;;;6709076;88;20221;-80
2023/06/28 21:21:47;;;;;;;1999.90;999.90;;;21.10;99.90;;;;;;6720284;88;20215;-79
2023/06/28 21:31:48;;;;;;;1999.90;999.90;;;20.90;99.90;;;;;;6715590;88;20659;-79
2023/06/28 21:41:48;;;;;;;1999.90;999.90;;;20.70;99.90;;;;;;6709154;88;20213;-79
2023/06/28 21:51:49;;;;;;;1999.90;999.90;;;20.50;99.90;;;;;;6718848;88;20500;-79
2023/06/28 22:01:49;;;;;;;1999.90;999.90;;;20.40;99.90;;;;;;6719532;88;20268;-78
2023/06/28 22:11:52;;;;;;;1999.90;999.90;;;20.30;99.90;;;;;;6717745;88;20225;-78
2023/06/28 22:21:52;;;;;;;1999.90;999.90;;;20.10;99.90;;;;;;6707416;88;20238;-79
2023/06/28 22:31:53;;;;;;;1999.90;999.90;;;20.00;99.90;;;;;;6697505;88;20222;-78
2023/06/28 22:41:53;;;;;;;1999.90;999.90;;;19.80;99.90;;;;;;6718124;88;20247;-78
2023/06/28 22:51:54;;;;;;;1999.90;999.90;;;19.80;99.90;;;;;;6711127;88;20247;-78
2023/06/28 23:12:56;;;;;;;1999.90;999.90;;;19.80;99.90;;;;;;6739619;88;20532;-81
2023/06/28 23:22:57;;;;;;;1999.90;999.90;;;19.80;99.90;;;;;;6745459;88;20229;-81
2023/06/28 23:32:57;;;;;;;1999.90;999.90;;;19.90;99.90;;;;;;6749508;88;20269;-80
2023/06/28 23:43:02;;;;;;;1999.90;999.90;;;19.90;99.90;;;;;;6739123;88;20858;-80
2023/06/28 23:53:03;;;;;;;1999.90;999.90;;;19.80;99.90;;;;;;6742524;88;20697;-80
